This site uses cookies by Google to deliver services, personalize advertisements and analyze traffic. Information on the use of procyclingstats.com is shared with Google. By continuing to use this site you agree to our use of cookies.   Find out more  Close
Search:  
› English
English
Nederlands
Login/Sign-up
1989
1987
»
«

 1988   »   71st Giro d´Italia

General Classification

« previous   next »
  Remove filter
RnkRiderTeamPntTime
1 Hampsten Andrew7 Eleven - Hoonved400 97:18:56 97:18:56
2 Breukink ErikPanasonic2901:43 1:43
3 Zimmermann UrsCarrera Jeans - Vagabond2402:45 2:45
4 Giupponi FlavioDel Tongo2206:56 6:56
5 Chioccioli FrancoDel Tongo20013:20 13:20
6 Giovannetti Marco19015:20 15:20
7 Delgado PedroReynolds18017:02 17:02
8 Winnen PeterPanasonic17018:14 18:14
9 Tomasini StefanoFanini16027:01 27:01
10 Vandelli MaurizioAtala - Ofmega15027:02 27:02
11 Breu BeatCyndarella-Isotonic14028:17 28:17
12 Madiot MarcToshiba130,, 28:17
13 Visentini RobertoCarrera Jeans - Vagabond12040:07 40:07
14 Alcala Raul7 Eleven - Hoonved11020:09 20:09
15 Vona FrancoChateau d'Ax10043:31 43:31
16 Martinez Juan TomasZahor9049:12 49:12
17 Nulens GuyPanasonic8553:49 53:49
18 Ghirotto MassimoCarrera Jeans - Vagabond8054:48 54:48
19 Volpi Alberto7555:05 55:05
20 Bombini Emanuele7055:33 55:33
21 Vanotti EnnioChateau d'Ax6557:39 57:39
22 Contini SilvanoMalvor - Bottecchia6058:12 58:12
23 Wechselberger HelmutMalvor - Bottecchia5559:17 59:17
24 Chiappucci ClaudioCarrera Jeans - Vagabond501:01:11 1:01:11
25 Franceschini MarcoAlbaCucine-Benotto-Sidermec451:01:22 1:01:22
26 Amadori MarinoAlfaLum-Legnano-Ecoflam401:02:42 1:02:42
27 Saronni GiuseppeDel Tongo351:03:28 1:03:28
28 Savini ClaudioAlbaCucine-Benotto-Sidermec301:04:10 1:04:10
29 Lecchi AngeloDel Tongo251:04:38 1:04:38
30 Laguia Jose LuisReynolds201:06:55 1:06:55
31 Vandi AlfioIsoglass201:08:58 1:08:58
32 Lukin JavierReynolds201:10:21 1:10:21
33 Conti RobertoSelca201:11:30 1:11:30
34 Santaromita Mauro-antonioAlbaCucine-Benotto-Sidermec201:11:35 1:11:35
35 Vitali MarcoAtala - Ofmega201:12:07 1:12:07
36 Loro LucianoDel Tongo201:14:58 1:14:58
37 Philipot FabriceToshiba201:15:40 1:15:40
38 Arnoud DominiqueReynolds201:17:24 1:17:24
39 Siboni MarcelloAriostea201:18:07 1:18:07
40 Portillo-rosado SantiagoZahor201:18:43 1:18:43
41 Podenzana MassimoAtala - Ofmega201:18:57 1:18:57
42 Sørensen RolfAriostea201:20:51 1:20:51
43 Stutz WernerCyndarella-Isotonic201:25:51 1:25:51
44 Rominger TonyChateau d'Ax201:27:44 1:27:44
45 Rodriguez JesusReynolds201:28:15 1:28:15
46 Pierce Jeff7 Eleven - Hoonved201:28:46 1:28:46
47 Hernandez OmarReynolds201:29:13 1:29:13
48 Jaermann RolfCyndarella-Isotonic201:35:20 1:35:20
49 Pagnin Roberto201:35:26 1:35:26
50 Faresin GianniMalvor - Bottecchia201:36:02 1:36:02
51 Galleschi EnricoAlbaCucine-Benotto-Sidermec201:38:24 1:38:24
52 Rota LucaDel Tongo201:39:51 1:39:51
53 Rabottini LucianoAriostea201:43:42 1:43:42
54 Corti ClaudioChateau d'Ax201:44:22 1:44:22
55 Muller JörgPDM - Ultima - Concorde201:46:21 1:46:21
56 Giuliani StefanoChateau d'Ax201:48:10 1:48:10
57 Van Vliet TeunPanasonic201:48:15 1:48:15
58 Wyder DaniëlIsoglass201:49:10 1:49:10
59 Moro MicheleSelca201:50:43 1:50:43
60 Skoda JiriAlfaLum-Legnano-Ecoflam201:51:01 1:51:01
61 Roll Bob7 Eleven - Hoonved201:52:07 1:52:07
62 Kiefel Ron7 Eleven - Hoonved201:52:21 1:52:21
63 Piccolo Renato201:54:48 1:54:48
64 Fregonese GiampaoloMalvor - Bottecchia201:55:10 1:55:10
65 Van Der Velde Johan201:56:27 1:56:27
66 Van Orsouw MarcPDM - Ultima - Concorde201:57:15 1:57:15
67 Gavazzi PierinoFanini202:00:43 2:00:43
68 Worre Jesper202:05:18 2:05:18
69 Lubberding HenkPanasonic202:05:19 2:05:19
70 Piovani MaurizioDel Tongo202:06:11 2:06:11
71 Steinmann KurtCyndarella-Isotonic202:07:12 2:07:12
72 Huerlimann BrunoCyndarella-Isotonic202:09:36 2:09:36
73 Salvador Ennio202:09:45 2:09:45
74 Piasecki LechDel Tongo202:09:56 2:09:56
75 Vanderaerden EricPanasonic202:10:16 2:10:16
76 Pozzi Alessandro202:13:08 2:13:08
77 Botteon LuigiFanini202:13:19 2:13:19
78 Votolo MarcoCarrera Jeans - Vagabond202:13:45 2:13:45
79 De Rooy TheoPanasonic202:15:33 2:15:33
80 Lang CzeslawDel Tongo202:16:48 2:16:48
81 Pizzol DanieleMalvor - Bottecchia202:18:42 2:18:42
82 Freuler UrsPanasonic202:18:50 2:18:50
83 Zen MarcoAlfaLum-Legnano-Ecoflam202:18:56 2:18:56
84 Bordonali FabioCarrera Jeans - Vagabond202:19:32 2:19:32
85 Lorenzon SilvanoMalvor - Bottecchia202:19:36 2:19:36
86 Elli AlbertoFanini202:20:44 2:20:44
87 Cortinovis TullioAtala - Ofmega20,, 2:20:44
88 Cesarini FrancescoAriostea202:24:30 2:24:30
89 Vandelli ClaudioAtala - Ofmega202:26:55 2:26:55
90 Ghiotto Federico202:31 2:31
91 Bontempi GuidoCarrera Jeans - Vagabond202:31:47 2:31:47
92 Gisiger DanielCyndarella-Isotonic202:32:38 2:32:38
93 Saligari MarcoAriostea202:35:11 2:35:11
94 Suarez Jesus202:38:16 2:38:16
95 Vanucci FabrizioSelca202:40:11 2:40:11
96 Noris MarioAtala - Ofmega202:42:20 2:42:20
97 Furlan Luigi202:45:16 2:45:16
98 Mauri MelchorReynolds202:45:59 2:45:59
99 Wohlfahrter ArnoMalvor - Bottecchia202:49:04 2:49:04
100 Piva ValerioAriostea202:49:37 2:49:37
101 Bincoletto PierangeloToshiba202:50:10 2:50:10
102 Rosola Paolo202:55:06 2:55:06
103 Peiper AlanPanasonic202:56:48 2:56:48
104 Chesini FlavioAlbaCucine-Benotto-Sidermec202:57:52 2:57:52
105 Lammerts JohanToshiba202:58:24 2:58:24
106 Petito Giuseppe202:59:41 2:59:41
107 Martinello SilvioAtala - Ofmega203:05:27 3:05:27
108 Boffo LucianoAlfaLum-Legnano-Ecoflam203:07:25 3:07:25
109 Di Basco AlessioFanini203:07:48 3:07:48
110 Strazzer GiovanniMalvor - Bottecchia203:08:59 3:08:59
111 Rocchi EduardoSelca203:10:13 3:10:13
112 Ferretti AntonioIsoglass203:11:02 3:11:02
113 Del Ben Daniele203:11:07 3:11:07
114 Allocchio StefanoChateau d'Ax203:17:00 3:17:00
115 Popp PaulMalvor - Bottecchia203:21:13 3:21:13
116 Caroli DanieleAlfaLum-Legnano-Ecoflam203:29:30 3:29:30
117 Ronsse LucIsoglass203:34:56 3:34:56
118 Phinney Davis7 Eleven - Hoonved203:40:27 3:40:27
119 Ostergaard Jan-erikIsoglass203:43:00 3:43:00
120 Gambirasio PatrizioSelca203:46:39 3:46:39
121 Bottoia Giovanni PaoloChateau d'Ax203:48:51 3:48:51
122 Grimani EnricoAlbaCucine-Benotto-Sidermec203:52:01 3:52:01
123 Vandewalle GeertIsoglass204:06:47 4:06:47
124 Redant HendrikIsoglass204:19:36 4:19:36
125 Morandi DanteSelca204:48:15 4:48:15
RnkTeamTime
1 Carrera Jeans - Vagabond 291:19:15 291:19:15
2 Panasonic4:34 4:34
3 Del Tongo9:56 9:56

Race information

Giro d´Italia logoDate: 12th June 1988
Avg. speed winner: 36.788 km/u
Race category: Men Elite

Websites:
www.giroditalia.it
www.twitter.com/giroditalia

Advertisement

All information and specifications shown on this website are based upon the latest available information provided by race organizations, teams and riders. No rights can be withdrawn from rankings, results or statistics as presented on this website.
  0.10792 sec.